Terminal Aerodrome Forecast
Issued by NWS

Home | Current Version | Previous Version | Text Only | Print | Product List | Glossary On
Versions: 1 2 3 4 5 6 7 8 9 10 11 12 13 14 15 16 17 18 19 20 21 22 23 24 25
000
FTUS44 KEWX 201743
TAFSSF
TAF
KSSF 201743Z 2018/2118 14015KT P6SM -RA BKN010 OVC025
     FM202200 14012KT P6SM OVC035
     FM210200 13010KT P6SM OVC020
     FM211000 11010KT 5SM -TSRA BKN010CB
     FM211300 07010KT 2SM TSRA BR OVC008CB
     FM211700 04012KT 2SM -SHRA BR OVC004=

USA.gov is the U.S. government's official web portal to all federal, state and local government web resources and services.